Jamul, CA (91935)

9:15 PM PST on February 28, 2015 (GMT -0800)
APRSWXNET Jamul CA US | Change Station
CLOSE
Current Station
Personal Weather Station
Location: El Cajon, CA
Elevation: 1004 ft
Nearby Weather Stations

Elev 1004 ft 32.71 °N, 116.87 °W | Updated 36 minutes ago

Overcast
Overcast
50 °F
Feels Like 50 °F
N
0
Wind Variable Wind from SE
Gusts 0.0 mph

Today
High -- | Low -- °F
--% Chance of Precip.
Yesterday
High -- | Low -- °F
Precip. -- in
6:16 AM 5:43 PM
Waxing Gibbous, 82% visible
Pressure 29.91 in
Visibility 10.0 miles
Clouds Few 2900 ft
Few 4500 ft
Dew Point 46 °F
Humidity 86%
Rainfall -999.00 in
Snow Depth Not available.
UV 0 out of 12
Pollen 6.80 out of 12
Air Quality Not available.
Flu Activity Not available.
METAR KSDM 010453Z AUTO 19003KT 10SM FEW029 FEW045 12/08 A2991 RMK AO2 SLP127 T01220083

More Conditions Fewer Conditions

Pressure 29.91 in
Visibility 10.0 miles
Clouds Few 2900 ft
Few 4500 ft
Dew Point 46 °F
Humidity 86%
Rainfall -999.00 in
Snow Depth Not available.
UV 0 out of 12
Pollen 6.80 out of 12
Air Quality Not available.
Flu Activity Not available.
METAR KSDM 010453Z AUTO 19003KT 10SM FEW029 FEW045 12/08 A2991 RMK AO2 SLP127 T01220083

More Conditions Fewer Conditions

10-Day Weather Forecast

Almanac

Astronomy

Feb. 28, 2015 Rise Set
Actual Time
Civil Twilight
Nautical Twilight
Astronomical Twilight
Moon
Length of Visible Light
Length of Day
Tomorrow will be .
, % of the Moon is Illuminated

Today's Extremes

State Highs State Lows

Community

WunderPhotos

Upload Photos

1,801,319 photos uploaded!

WunderBlogs® & News

Nearby

Air Quality

  Air Quality AQ Index Pollutant
Not available.

Snow Depth

Station Depth Elevation

Earthquake Activity

City Distance Mag. Time & Date
Minimum magnitude displayed is 2.5.

Coastal Water Temperatures

Place Temperature

Nearby Weather Stations